sensor_id;sensor_type;location;lat;lon;timestamp;temperature;humidity
4374;DHT22;2201;51.100;6.814;2023-05-02T00:01:34;12.20;98.20
4374;DHT22;2201;51.100;6.814;2023-05-02T00:04:01;12.10;98.20
4374;DHT22;2201;51.100;6.814;2023-05-02T00:06:29;12.10;98.20
4374;DHT22;2201;51.100;6.814;2023-05-02T00:08:56;12.00;98.20
4374;DHT22;2201;51.100;6.814;2023-05-02T00:11:25;12.00;98.20
4374;DHT22;2201;51.100;6.814;2023-05-02T00:13:51;11.90;98.20
4374;DHT22;2201;51.100;6.814;2023-05-02T00:16:18;11.80;98.20
4374;DHT22;2201;51.100;6.814;2023-05-02T00:18:46;11.80;98.20
4374;DHT22;2201;51.100;6.814;2023-05-02T00:21:13;11.80;98.20
4374;DHT22;2201;51.100;6.814;2023-05-02T00:23:40;11.80;98.20
4374;DHT22;2201;51.100;6.814;2023-05-02T00:26:08;11.70;98.20
4374;DHT22;2201;51.100;6.814;2023-05-02T00:28:36;11.70;98.20
4374;DHT22;2201;51.100;6.814;2023-05-02T00:31:03;11.60;98.20
4374;DHT22;2201;51.100;6.814;2023-05-02T00:33:30;11.60;98.20
4374;DHT22;2201;51.100;6.814;2023-05-02T00:35:57;11.60;98.20
4374;DHT22;2201;51.100;6.814;2023-05-02T00:38:24;11.50;98.20
4374;DHT22;2201;51.100;6.814;2023-05-02T00:40:50;11.50;98.20
4374;DHT22;2201;51.100;6.814;2023-05-02T00:43:18;11.40;98.20
4374;DHT22;2201;51.100;6.814;2023-05-02T00:45:46;11.40;98.20
4374;DHT22;2201;51.100;6.814;2023-05-02T00:48:13;11.40;98.20
4374;DHT22;2201;51.100;6.814;2023-05-02T00:50:42;11.40;98.20
4374;DHT22;2201;51.100;6.814;2023-05-02T00:53:09;11.30;98.20
4374;DHT22;2201;51.100;6.814;2023-05-02T00:55:36;11.30;98.20
4374;DHT22;2201;51.100;6.814;2023-05-02T00:58:05;11.20;98.20
4374;DHT22;2201;51.100;6.814;2023-05-02T01:00:42;11.20;98.20
4374;DHT22;2201;51.100;6.814;2023-05-02T01:03:22;11.20;98.20
4374;DHT22;2201;51.100;6.814;2023-05-02T01:06:01;11.10;98.20
4374;DHT22;2201;51.100;6.814;2023-05-02T01:08:38;11.10;98.20
4374;DHT22;2201;51.100;6.814;2023-05-02T01:11:13;11.10;98.20
4374;DHT22;2201;51.100;6.814;2023-05-02T01:13:42;11.10;98.20
4374;DHT22;2201;51.100;6.814;2023-05-02T01:16:11;11.10;98.20
4374;DHT22;2201;51.100;6.814;2023-05-02T01:18:41;11.10;98.20
4374;DHT22;2201;51.100;6.814;2023-05-02T01:21:09;11.10;98.20
4374;DHT22;2201;51.100;6.814;2023-05-02T01:23:45;11.10;98.20
4374;DHT22;2201;51.100;6.814;2023-05-02T01:26:29;11.10;98.20
4374;DHT22;2201;51.100;6.814;2023-05-02T01:29:01;11.10;98.20
4374;DHT22;2201;51.100;6.814;2023-05-02T01:31:30;11.10;98.20
4374;DHT22;2201;51.100;6.814;2023-05-02T01:33:59;11.00;98.20
4374;DHT22;2201;51.100;6.814;2023-05-02T01:36:29;11.00;98.20
4374;DHT22;2201;51.100;6.814;2023-05-02T01:38:57;11.00;98.20
4374;DHT22;2201;51.100;6.814;2023-05-02T01:41:26;11.00;98.20
4374;DHT22;2201;51.100;6.814;2023-05-02T01:43:56;11.00;98.20
4374;DHT22;2201;51.100;6.814;2023-05-02T01:46:26;11.00;98.20
4374;DHT22;2201;51.100;6.814;2023-05-02T01:48:56;11.00;98.20
4374;DHT22;2201;51.100;6.814;2023-05-02T01:51:26;11.10;98.20
4374;DHT22;2201;51.100;6.814;2023-05-02T01:53:58;11.10;98.20
4374;DHT22;2201;51.100;6.814;2023-05-02T01:56:27;11.10;98.20
4374;DHT22;2201;51.100;6.814;2023-05-02T01:58:56;11.10;98.20
4374;DHT22;2201;51.100;6.814;2023-05-02T02:01:26;11.10;98.20
4374;DHT22;2201;51.100;6.814;2023-05-02T02:03:56;11.10;98.20
4374;DHT22;2201;51.100;6.814;2023-05-02T02:06:23;11.10;98.20
4374;DHT22;2201;51.100;6.814;2023-05-02T02:08:50;11.10;98.20
4374;DHT22;2201;51.100;6.814;2023-05-02T02:11:25;11.10;98.20
4374;DHT22;2201;51.100;6.814;2023-05-02T02:13:59;11.20;98.20
4374;DHT22;2201;51.100;6.814;2023-05-02T02:16:31;11.20;98.20
4374;DHT22;2201;51.100;6.814;2023-05-02T02:19:05;11.20;98.20
4374;DHT22;2201;51.100;6.814;2023-05-02T02:21:33;11.20;98.20
4374;DHT22;2201;51.100;6.814;2023-05-02T02:24:02;11.20;98.20
4374;DHT22;2201;51.100;6.814;2023-05-02T02:26:29;11.30;98.20
4374;DHT22;2201;51.100;6.814;2023-05-02T02:28:56;11.30;98.20
4374;DHT22;2201;51.100;6.814;2023-05-02T02:31:23;11.30;98.20
4374;DHT22;2201;51.100;6.814;2023-05-02T02:33:57;11.30;98.20
4374;DHT22;2201;51.100;6.814;2023-05-02T02:36:28;11.40;98.20
4374;DHT22;2201;51.100;6.814;2023-05-02T02:39:03;11.40;98.20
4374;DHT22;2201;51.100;6.814;2023-05-02T02:41:39;11.40;98.20
4374;DHT22;2201;51.100;6.814;2023-05-02T02:44:25;11.40;98.20
4374;DHT22;2201;51.100;6.814;2023-05-02T02:46:59;11.50;98.20
4374;DHT22;2201;51.100;6.814;2023-05-02T02:49:34;11.50;98.20
4374;DHT22;2201;51.100;6.814;2023-05-02T02:52:08;11.50;98.20
4374;DHT22;2201;51.100;6.814;2023-05-02T02:54:40;11.50;98.20
4374;DHT22;2201;51.100;6.814;2023-05-02T02:57:15;11.50;98.20
4374;DHT22;2201;51.100;6.814;2023-05-02T02:59:49;11.60;98.20
4374;DHT22;2201;51.100;6.814;2023-05-02T03:02:18;11.60;98.20
4374;DHT22;2201;51.100;6.814;2023-05-02T03:04:50;11.60;98.20
4374;DHT22;2201;51.100;6.814;2023-05-02T03:07:17;11.60;98.20
4374;DHT22;2201;51.100;6.814;2023-05-02T03:09:45;11.60;98.20
4374;DHT22;2201;51.100;6.814;2023-05-02T03:12:13;11.60;98.20
4374;DHT22;2201;51.100;6.814;2023-05-02T03:14:40;11.60;98.20
4374;DHT22;2201;51.100;6.814;2023-05-02T03:17:08;11.70;98.20
4374;DHT22;2201;51.100;6.814;2023-05-02T03:19:35;11.70;98.20
4374;DHT22;2201;51.100;6.814;2023-05-02T03:22:04;11.70;98.20
4374;DHT22;2201;51.100;6.814;2023-05-02T03:24:30;11.70;98.20
4374;DHT22;2201;51.100;6.814;2023-05-02T03:26:58;11.70;98.20
4374;DHT22;2201;51.100;6.814;2023-05-02T03:29:25;11.70;98.20
4374;DHT22;2201;51.100;6.814;2023-05-02T03:31:53;11.70;98.20
4374;DHT22;2201;51.100;6.814;2023-05-02T03:34:20;11.70;98.20
4374;DHT22;2201;51.100;6.814;2023-05-02T03:36:47;11.80;98.20
4374;DHT22;2201;51.100;6.814;2023-05-02T03:39:15;11.80;98.20
4374;DHT22;2201;51.100;6.814;2023-05-02T03:41:42;11.80;98.20
4374;DHT22;2201;51.100;6.814;2023-05-02T03:44:09;11.80;98.20
4374;DHT22;2201;51.100;6.814;2023-05-02T03:46:36;11.80;98.20
4374;DHT22;2201;51.100;6.814;2023-05-02T03:49:03;11.80;98.20
4374;DHT22;2201;51.100;6.814;2023-05-02T03:51:30;11.80;98.20
4374;DHT22;2201;51.100;6.814;2023-05-02T03:53:59;11.90;98.20
4374;DHT22;2201;51.100;6.814;2023-05-02T03:56:28;11.90;98.20
4374;DHT22;2201;51.100;6.814;2023-05-02T03:58:55;11.90;98.20
4374;DHT22;2201;51.100;6.814;2023-05-02T04:01:22;11.90;98.20
4374;DHT22;2201;51.100;6.814;2023-05-02T04:03:50;11.90;98.20
4374;DHT22;2201;51.100;6.814;2023-05-02T04:06:17;11.90;98.20
4374;DHT22;2201;51.100;6.814;2023-05-02T04:08:44;11.90;98.20
4374;DHT22;2201;51.100;6.814;2023-05-02T04:11:11;11.90;98.20
4374;DHT22;2201;51.100;6.814;2023-05-02T04:13:39;11.80;98.20
4374;DHT22;2201;51.100;6.814;2023-05-02T04:16:07;11.90;98.20
4374;DHT22;2201;51.100;6.814;2023-05-02T04:18:34;11.80;98.20
4374;DHT22;2201;51.100;6.814;2023-05-02T04:21:01;11.80;98.20
4374;DHT22;2201;51.100;6.814;2023-05-02T04:23:27;11.90;98.20
4374;DHT22;2201;51.100;6.814;2023-05-02T04:25:55;11.90;98.20
4374;DHT22;2201;51.100;6.814;2023-05-02T04:28:22;11.90;98.20
4374;DHT22;2201;51.100;6.814;2023-05-02T04:30:50;11.90;98.20
4374;DHT22;2201;51.100;6.814;2023-05-02T04:33:17;11.90;98.20
4374;DHT22;2201;51.100;6.814;2023-05-02T04:35:44;11.90;98.20
4374;DHT22;2201;51.100;6.814;2023-05-02T04:38:12;11.90;98.20
4374;DHT22;2201;51.100;6.814;2023-05-02T04:40:40;11.90;98.20
4374;DHT22;2201;51.100;6.814;2023-05-02T04:43:07;11.90;98.20
4374;DHT22;2201;51.100;6.814;2023-05-02T04:45:34;12.00;98.20
4374;DHT22;2201;51.100;6.814;2023-05-02T04:48:03;12.00;98.20
4374;DHT22;2201;51.100;6.814;2023-05-02T04:50:30;12.00;98.20
4374;DHT22;2201;51.100;6.814;2023-05-02T04:52:57;12.00;98.20
4374;DHT22;2201;51.100;6.814;2023-05-02T04:55:24;12.00;98.20
4374;DHT22;2201;51.100;6.814;2023-05-02T04:57:51;12.00;98.20
4374;DHT22;2201;51.100;6.814;2023-05-02T05:00:18;12.00;98.20
4374;DHT22;2201;51.100;6.814;2023-05-02T05:02:46;12.00;98.20
4374;DHT22;2201;51.100;6.814;2023-05-02T05:05:14;12.00;98.20
4374;DHT22;2201;51.100;6.814;2023-05-02T05:07:41;12.00;98.20
4374;DHT22;2201;51.100;6.814;2023-05-02T05:10:08;12.00;98.20
4374;DHT22;2201;51.100;6.814;2023-05-02T05:12:36;12.00;98.20
4374;DHT22;2201;51.100;6.814;2023-05-02T05:15:04;12.00;98.20
4374;DHT22;2201;51.100;6.814;2023-05-02T05:17:31;11.90;98.20
4374;DHT22;2201;51.100;6.814;2023-05-02T05:19:58;11.90;98.20
4374;DHT22;2201;51.100;6.814;2023-05-02T05:22:26;11.90;98.20
4374;DHT22;2201;51.100;6.814;2023-05-02T05:24:53;11.90;98.20
4374;DHT22;2201;51.100;6.814;2023-05-02T05:27:21;12.00;98.20
4374;DHT22;2201;51.100;6.814;2023-05-02T05:29:47;12.00;98.20
4374;DHT22;2201;51.100;6.814;2023-05-02T05:32:14;12.00;98.20
4374;DHT22;2201;51.100;6.814;2023-05-02T05:34:41;11.90;98.20
4374;DHT22;2201;51.100;6.814;2023-05-02T05:37:08;11.90;98.20
4374;DHT22;2201;51.100;6.814;2023-05-02T05:39:36;11.90;98.20
4374;DHT22;2201;51.100;6.814;2023-05-02T05:42:03;11.80;98.20
4374;DHT22;2201;51.100;6.814;2023-05-02T05:44:30;11.80;98.20
4374;DHT22;2201;51.100;6.814;2023-05-02T05:46:57;11.80;98.20
4374;DHT22;2201;51.100;6.814;2023-05-02T05:49:24;11.80;98.20
4374;DHT22;2201;51.100;6.814;2023-05-02T05:51:51;11.80;98.20
4374;DHT22;2201;51.100;6.814;2023-05-02T05:54:18;11.90;98.20
4374;DHT22;2201;51.100;6.814;2023-05-02T05:56:46;11.90;98.20
4374;DHT22;2201;51.100;6.814;2023-05-02T05:59:13;11.90;98.20
4374;DHT22;2201;51.100;6.814;2023-05-02T06:01:49;12.00;98.20
4374;DHT22;2201;51.100;6.814;2023-05-02T06:08:13;12.00;98.20
4374;DHT22;2201;51.100;6.814;2023-05-02T06:10:49;12.00;98.20
4374;DHT22;2201;51.100;6.814;2023-05-02T06:13:37;12.00;98.20
4374;DHT22;2201;51.100;6.814;2023-05-02T06:19:12;12.00;98.20
4374;DHT22;2201;51.100;6.814;2023-05-02T06:21:45;12.00;98.20
4374;DHT22;2201;51.100;6.814;2023-05-02T06:24:30;12.00;98.20
4374;DHT22;2201;51.100;6.814;2023-05-02T06:27:08;12.00;98.20
4374;DHT22;2201;51.100;6.814;2023-05-02T06:29:40;12.00;98.20
4374;DHT22;2201;51.100;6.814;2023-05-02T06:32:09;12.00;98.20
4374;DHT22;2201;51.100;6.814;2023-05-02T06:34:44;12.00;98.20
4374;DHT22;2201;51.100;6.814;2023-05-02T06:37:11;12.00;98.20
4374;DHT22;2201;51.100;6.814;2023-05-02T06:39:38;12.10;98.20
4374;DHT22;2201;51.100;6.814;2023-05-02T06:42:05;12.10;98.20
4374;DHT22;2201;51.100;6.814;2023-05-02T06:44:32;12.10;98.20
4374;DHT22;2201;51.100;6.814;2023-05-02T06:47:00;12.00;98.20
4374;DHT22;2201;51.100;6.814;2023-05-02T06:49:27;12.00;98.20
4374;DHT22;2201;51.100;6.814;2023-05-02T06:51:53;12.00;98.20
4374;DHT22;2201;51.100;6.814;2023-05-02T06:54:20;12.00;98.20
4374;DHT22;2201;51.100;6.814;2023-05-02T06:56:47;12.00;98.20
4374;DHT22;2201;51.100;6.814;2023-05-02T06:59:14;12.00;98.20
4374;DHT22;2201;51.100;6.814;2023-05-02T07:01:42;12.00;98.20
4374;DHT22;2201;51.100;6.814;2023-05-02T07:04:11;12.00;98.20
4374;DHT22;2201;51.100;6.814;2023-05-02T07:06:38;12.00;98.20
4374;DHT22;2201;51.100;6.814;2023-05-02T07:09:05;12.10;98.20
4374;DHT22;2201;51.100;6.814;2023-05-02T07:11:32;12.10;98.20
4374;DHT22;2201;51.100;6.814;2023-05-02T07:13:58;12.20;98.20
4374;DHT22;2201;51.100;6.814;2023-05-02T07:16:25;12.30;98.20
4374;DHT22;2201;51.100;6.814;2023-05-02T07:18:52;12.50;98.20
4374;DHT22;2201;51.100;6.814;2023-05-02T07:21:20;12.50;98.20
4374;DHT22;2201;51.100;6.814;2023-05-02T07:23:47;12.60;98.20
4374;DHT22;2201;51.100;6.814;2023-05-02T07:26:14;12.60;98.20
4374;DHT22;2201;51.100;6.814;2023-05-02T07:28:43;12.60;98.20
4374;DHT22;2201;51.100;6.814;2023-05-02T07:31:10;12.60;98.20
4374;DHT22;2201;51.100;6.814;2023-05-02T07:33:41;12.60;98.20
4374;DHT22;2201;51.100;6.814;2023-05-02T07:36:13;12.70;98.20
4374;DHT22;2201;51.100;6.814;2023-05-02T07:38:41;12.70;98.20
4374;DHT22;2201;51.100;6.814;2023-05-02T07:41:08;12.80;98.20
4374;DHT22;2201;51.100;6.814;2023-05-02T07:43:35;12.80;98.20
4374;DHT22;2201;51.100;6.814;2023-05-02T07:46:05;12.80;98.20
4374;DHT22;2201;51.100;6.814;2023-05-02T07:48:31;12.90;98.20
4374;DHT22;2201;51.100;6.814;2023-05-02T07:51:05;12.80;98.20
4374;DHT22;2201;51.100;6.814;2023-05-02T07:53:32;12.80;98.20
4374;DHT22;2201;51.100;6.814;2023-05-02T07:56:01;12.90;98.20
4374;DHT22;2201;51.100;6.814;2023-05-02T07:58:29;12.80;98.20
4374;DHT22;2201;51.100;6.814;2023-05-02T08:00:56;12.90;98.20
4374;DHT22;2201;51.100;6.814;2023-05-02T08:03:23;12.90;98.20
4374;DHT22;2201;51.100;6.814;2023-05-02T08:05:50;12.90;98.20
4374;DHT22;2201;51.100;6.814;2023-05-02T08:08:17;13.00;98.20
4374;DHT22;2201;51.100;6.814;2023-05-02T08:10:44;13.10;98.20
4374;DHT22;2201;51.100;6.814;2023-05-02T08:13:12;13.10;98.20
4374;DHT22;2201;51.100;6.814;2023-05-02T08:15:39;13.20;98.20
4374;DHT22;2201;51.100;6.814;2023-05-02T08:18:05;13.20;98.20
4374;DHT22;2201;51.100;6.814;2023-05-02T08:20:32;13.30;98.20
4374;DHT22;2201;51.100;6.814;2023-05-02T08:22:59;13.30;98.20
4374;DHT22;2201;51.100;6.814;2023-05-02T08:25:26;13.30;98.20
4374;DHT22;2201;51.100;6.814;2023-05-02T08:27:52;13.40;98.20
4374;DHT22;2201;51.100;6.814;2023-05-02T08:30:21;13.30;98.20
4374;DHT22;2201;51.100;6.814;2023-05-02T08:32:49;13.20;98.20
4374;DHT22;2201;51.100;6.814;2023-05-02T08:35:15;13.00;98.20
4374;DHT22;2201;51.100;6.814;2023-05-02T08:37:42;12.80;98.20
4374;DHT22;2201;51.100;6.814;2023-05-02T08:40:11;12.60;98.20
4374;DHT22;2201;51.100;6.814;2023-05-02T08:42:41;12.40;98.20
4374;DHT22;2201;51.100;6.814;2023-05-02T08:45:10;12.20;98.20
4374;DHT22;2201;51.100;6.814;2023-05-02T08:47:40;12.20;98.20
4374;DHT22;2201;51.100;6.814;2023-05-02T08:50:08;12.20;98.20
4374;DHT22;2201;51.100;6.814;2023-05-02T08:52:35;12.20;98.20
4374;DHT22;2201;51.100;6.814;2023-05-02T08:55:03;12.20;98.20
4374;DHT22;2201;51.100;6.814;2023-05-02T08:57:30;12.30;98.20
4374;DHT22;2201;51.100;6.814;2023-05-02T08:59:57;12.50;98.20
4374;DHT22;2201;51.100;6.814;2023-05-02T09:02:36;12.50;98.20
4374;DHT22;2201;51.100;6.814;2023-05-02T09:05:07;12.60;98.20
4374;DHT22;2201;51.100;6.814;2023-05-02T09:07:44;12.60;98.20
4374;DHT22;2201;51.100;6.814;2023-05-02T09:10:11;12.60;98.20
4374;DHT22;2201;51.100;6.814;2023-05-02T09:12:38;12.60;98.20
4374;DHT22;2201;51.100;6.814;2023-05-02T09:15:09;12.60;98.20
4374;DHT22;2201;51.100;6.814;2023-05-02T09:17:44;12.60;98.20
4374;DHT22;2201;51.100;6.814;2023-05-02T09:20:13;12.70;98.20
4374;DHT22;2201;51.100;6.814;2023-05-02T09:22:47;12.70;98.20
4374;DHT22;2201;51.100;6.814;2023-05-02T09:25:15;12.80;98.20
4374;DHT22;2201;51.100;6.814;2023-05-02T09:27:49;12.80;98.20
4374;DHT22;2201;51.100;6.814;2023-05-02T09:30:18;12.70;98.20
4374;DHT22;2201;51.100;6.814;2023-05-02T09:32:46;12.70;98.20
4374;DHT22;2201;51.100;6.814;2023-05-02T09:35:16;12.70;98.20
4374;DHT22;2201;51.100;6.814;2023-05-02T09:37:49;12.80;98.20
4374;DHT22;2201;51.100;6.814;2023-05-02T09:40:16;12.90;98.20
4374;DHT22;2201;51.100;6.814;2023-05-02T09:42:46;13.20;98.20
4374;DHT22;2201;51.100;6.814;2023-05-02T09:45:20;13.50;98.20
4374;DHT22;2201;51.100;6.814;2023-05-02T09:47:48;13.70;98.20
4374;DHT22;2201;51.100;6.814;2023-05-02T09:50:34;14.10;98.20
4374;DHT22;2201;51.100;6.814;2023-05-02T09:53:02;14.50;98.20
4374;DHT22;2201;51.100;6.814;2023-05-02T09:55:29;14.70;98.20
4374;DHT22;2201;51.100;6.814;2023-05-02T09:57:57;14.80;97.20
4374;DHT22;2201;51.100;6.814;2023-05-02T10:00:37;14.80;97.90
4374;DHT22;2201;51.100;6.814;2023-05-02T10:03:05;14.80;98.20
4374;DHT22;2201;51.100;6.814;2023-05-02T10:05:35;14.70;98.20
4374;DHT22;2201;51.100;6.814;2023-05-02T10:08:03;14.50;98.20
4374;DHT22;2201;51.100;6.814;2023-05-02T10:10:32;14.20;97.70
4374;DHT22;2201;51.100;6.814;2023-05-02T10:12:59;14.00;98.20
4374;DHT22;2201;51.100;6.814;2023-05-02T10:15:28;14.00;98.20
4374;DHT22;2201;51.100;6.814;2023-05-02T10:17:57;14.00;98.20
4374;DHT22;2201;51.100;6.814;2023-05-02T10:20:29;13.90;98.20
4374;DHT22;2201;51.100;6.814;2023-05-02T10:23:00;13.90;98.20
4374;DHT22;2201;51.100;6.814;2023-05-02T10:25:28;13.90;98.20
4374;DHT22;2201;51.100;6.814;2023-05-02T10:27:56;14.00;97.50
4374;DHT22;2201;51.100;6.814;2023-05-02T10:30:24;14.00;98.00
4374;DHT22;2201;51.100;6.814;2023-05-02T10:32:52;14.10;98.20
4374;DHT22;2201;51.100;6.814;2023-05-02T10:35:20;14.20;98.00
4374;DHT22;2201;51.100;6.814;2023-05-02T10:37:49;14.30;98.20
4374;DHT22;2201;51.100;6.814;2023-05-02T10:40:18;14.30;97.40
4374;DHT22;2201;51.100;6.814;2023-05-02T10:42:46;14.40;97.80
4374;DHT22;2201;51.100;6.814;2023-05-02T10:45:29;14.50;96.50
4374;DHT22;2201;51.100;6.814;2023-05-02T10:48:12;14.60;95.70
4374;DHT22;2201;51.100;6.814;2023-05-02T10:50:43;14.70;96.00
4374;DHT22;2201;51.100;6.814;2023-05-02T10:56:15;15.00;93.90
4374;DHT22;2201;51.100;6.814;2023-05-02T10:58:43;15.00;94.30
4374;DHT22;2201;51.100;6.814;2023-05-02T11:01:34;15.10;93.50
4374;DHT22;2201;51.100;6.814;2023-05-02T11:04:09;15.10;91.80
4374;DHT22;2201;51.100;6.814;2023-05-02T11:09:33;15.40;90.90
4374;DHT22;2201;51.100;6.814;2023-05-02T11:12:02;15.60;90.40
4374;DHT22;2201;51.100;6.814;2023-05-02T11:14:43;15.80;91.70
4374;DHT22;2201;51.100;6.814;2023-05-02T11:17:12;16.10;89.20
4374;DHT22;2201;51.100;6.814;2023-05-02T11:22:53;16.20;89.50
4374;DHT22;2201;51.100;6.814;2023-05-02T11:25:31;16.50;89.20
4374;DHT22;2201;51.100;6.814;2023-05-02T11:27:59;16.60;88.70
4374;DHT22;2201;51.100;6.814;2023-05-02T11:30:43;16.50;87.20
4374;DHT22;2201;51.100;6.814;2023-05-02T11:33:17;16.30;89.10
4374;DHT22;2201;51.100;6.814;2023-05-02T11:35:45;16.10;88.60
4374;DHT22;2201;51.100;6.814;2023-05-02T11:38:15;15.90;87.80
4374;DHT22;2201;51.100;6.814;2023-05-02T11:40:53;15.70;88.60
4374;DHT22;2201;51.100;6.814;2023-05-02T11:43:23;15.60;89.30
4374;DHT22;2201;51.100;6.814;2023-05-02T11:45:51;15.60;88.40
4374;DHT22;2201;51.100;6.814;2023-05-02T11:48:19;15.60;89.80
4374;DHT22;2201;51.100;6.814;2023-05-02T11:50:48;15.60;88.70
4374;DHT22;2201;51.100;6.814;2023-05-02T11:53:16;16.00;89.60
4374;DHT22;2201;51.100;6.814;2023-05-02T11:55:45;16.20;87.50
4374;DHT22;2201;51.100;6.814;2023-05-02T11:58:13;16.20;86.70
4374;DHT22;2201;51.100;6.814;2023-05-02T12:00:42;16.40;86.70
4374;DHT22;2201;51.100;6.814;2023-05-02T12:03:23;16.80;86.80
4374;DHT22;2201;51.100;6.814;2023-05-02T12:05:50;17.20;86.00
4374;DHT22;2201;51.100;6.814;2023-05-02T12:08:23;17.30;83.00
4374;DHT22;2201;51.100;6.814;2023-05-02T12:10:51;17.20;83.20
4374;DHT22;2201;51.100;6.814;2023-05-02T12:13:20;17.00;83.50
4374;DHT22;2201;51.100;6.814;2023-05-02T12:15:49;16.90;83.30
4374;DHT22;2201;51.100;6.814;2023-05-02T12:18:18;16.90;84.50
4374;DHT22;2201;51.100;6.814;2023-05-02T12:20:48;16.90;84.70
4374;DHT22;2201;51.100;6.814;2023-05-02T12:23:16;17.00;82.90
4374;DHT22;2201;51.100;6.814;2023-05-02T12:25:42;17.00;83.50
4374;DHT22;2201;51.100;6.814;2023-05-02T12:28:09;17.00;84.40
4374;DHT22;2201;51.100;6.814;2023-05-02T12:30:37;16.90;83.90
4374;DHT22;2201;51.100;6.814;2023-05-02T12:33:07;16.80;82.40
4374;DHT22;2201;51.100;6.814;2023-05-02T12:35:35;16.80;83.70
4374;DHT22;2201;51.100;6.814;2023-05-02T12:38:13;16.90;84.10
4374;DHT22;2201;51.100;6.814;2023-05-02T12:40:49;17.00;82.80
4374;DHT22;2201;51.100;6.814;2023-05-02T12:43:17;17.10;83.10
4374;DHT22;2201;51.100;6.814;2023-05-02T12:45:47;17.10;81.40
4374;DHT22;2201;51.100;6.814;2023-05-02T12:48:20;16.90;81.20
4374;DHT22;2201;51.100;6.814;2023-05-02T12:50:48;16.90;82.10
4374;DHT22;2201;51.100;6.814;2023-05-02T12:53:15;17.10;82.10
4374;DHT22;2201;51.100;6.814;2023-05-02T12:55:42;17.60;81.10
4374;DHT22;2201;51.100;6.814;2023-05-02T12:58:10;18.00;80.30
4374;DHT22;2201;51.100;6.814;2023-05-02T13:00:38;18.40;78.20
4374;DHT22;2201;51.100;6.814;2023-05-02T13:03:06;18.50;78.20
4374;DHT22;2201;51.100;6.814;2023-05-02T13:05:34;18.40;77.60
4374;DHT22;2201;51.100;6.814;2023-05-02T13:08:02;18.30;78.30
4374;DHT22;2201;51.100;6.814;2023-05-02T13:10:29;18.10;78.20
4374;DHT22;2201;51.100;6.814;2023-05-02T13:12:55;18.20;80.20
4374;DHT22;2201;51.100;6.814;2023-05-02T13:15:22;18.40;79.50
4374;DHT22;2201;51.100;6.814;2023-05-02T13:17:50;18.50;77.40
4374;DHT22;2201;51.100;6.814;2023-05-02T13:20:17;18.20;76.20
4374;DHT22;2201;51.100;6.814;2023-05-02T13:22:46;17.70;77.20
4374;DHT22;2201;51.100;6.814;2023-05-02T13:25:13;17.40;78.00
4374;DHT22;2201;51.100;6.814;2023-05-02T13:27:39;17.40;78.70
4374;DHT22;2201;51.100;6.814;2023-05-02T13:30:07;17.50;80.40
4374;DHT22;2201;51.100;6.814;2023-05-02T13:32:36;17.80;78.80
4374;DHT22;2201;51.100;6.814;2023-05-02T13:35:03;18.00;77.00
4374;DHT22;2201;51.100;6.814;2023-05-02T13:37:31;18.30;78.50
4374;DHT22;2201;51.100;6.814;2023-05-02T13:39:59;18.50;76.00
4374;DHT22;2201;51.100;6.814;2023-05-02T13:42:26;18.80;74.10
4374;DHT22;2201;51.100;6.814;2023-05-02T13:44:53;19.00;75.90
4374;DHT22;2201;51.100;6.814;2023-05-02T13:47:20;19.20;75.20
4374;DHT22;2201;51.100;6.814;2023-05-02T13:49:47;19.50;75.20
4374;DHT22;2201;51.100;6.814;2023-05-02T13:52:14;19.70;75.20
4374;DHT22;2201;51.100;6.814;2023-05-02T13:54:41;19.90;70.90
4374;DHT22;2201;51.100;6.814;2023-05-02T13:57:09;19.90;72.20
4374;DHT22;2201;51.100;6.814;2023-05-02T13:59:36;19.80;71.60
4374;DHT22;2201;51.100;6.814;2023-05-02T14:02:03;19.60;72.40
4374;DHT22;2201;51.100;6.814;2023-05-02T14:04:30;19.40;72.40
4374;DHT22;2201;51.100;6.814;2023-05-02T14:06:57;19.10;72.80
4374;DHT22;2201;51.100;6.814;2023-05-02T14:09:24;19.00;72.50
4374;DHT22;2201;51.100;6.814;2023-05-02T14:11:51;18.90;75.50
4374;DHT22;2201;51.100;6.814;2023-05-02T14:14:19;19.10;73.30
4374;DHT22;2201;51.100;6.814;2023-05-02T14:16:46;19.30;73.20
4374;DHT22;2201;51.100;6.814;2023-05-02T14:19:13;19.50;73.50
4374;DHT22;2201;51.100;6.814;2023-05-02T14:21:40;19.40;71.20
4374;DHT22;2201;51.100;6.814;2023-05-02T14:24:07;19.40;72.40
4374;DHT22;2201;51.100;6.814;2023-05-02T14:26:34;19.60;70.00
4374;DHT22;2201;51.100;6.814;2023-05-02T14:29:00;19.70;72.90
4374;DHT22;2201;51.100;6.814;2023-05-02T14:31:29;19.70;71.00
4374;DHT22;2201;51.100;6.814;2023-05-02T14:33:56;20.00;71.70
4374;DHT22;2201;51.100;6.814;2023-05-02T14:36:22;19.80;69.00
4374;DHT22;2201;51.100;6.814;2023-05-02T14:38:49;19.70;69.90
4374;DHT22;2201;51.100;6.814;2023-05-02T14:41:16;19.80;70.20
4374;DHT22;2201;51.100;6.814;2023-05-02T14:43:43;19.80;69.10
4374;DHT22;2201;51.100;6.814;2023-05-02T14:46:10;19.70;67.50
4374;DHT22;2201;51.100;6.814;2023-05-02T14:48:38;19.60;68.70
4374;DHT22;2201;51.100;6.814;2023-05-02T14:51:05;19.60;71.10
4374;DHT22;2201;51.100;6.814;2023-05-02T14:53:32;19.50;69.20
4374;DHT22;2201;51.100;6.814;2023-05-02T14:55:59;19.40;68.90
4374;DHT22;2201;51.100;6.814;2023-05-02T14:58:26;19.10;71.70
4374;DHT22;2201;51.100;6.814;2023-05-02T15:00:53;19.00;69.60
4374;DHT22;2201;51.100;6.814;2023-05-02T15:03:20;19.00;70.60
4374;DHT22;2201;51.100;6.814;2023-05-02T15:05:48;19.00;68.60
4374;DHT22;2201;51.100;6.814;2023-05-02T15:08:15;18.80;70.60
4374;DHT22;2201;51.100;6.814;2023-05-02T15:10:42;18.70;70.50
4374;DHT22;2201;51.100;6.814;2023-05-02T15:13:09;18.70;71.20
4374;DHT22;2201;51.100;6.814;2023-05-02T15:15:35;18.70;70.80
4374;DHT22;2201;51.100;6.814;2023-05-02T15:18:03;18.80;69.90
4374;DHT22;2201;51.100;6.814;2023-05-02T15:20:29;19.00;71.10
4374;DHT22;2201;51.100;6.814;2023-05-02T15:22:58;19.10;70.20
4374;DHT22;2201;51.100;6.814;2023-05-02T15:25:27;19.10;70.60
4374;DHT22;2201;51.100;6.814;2023-05-02T15:27:55;19.20;70.00
4374;DHT22;2201;51.100;6.814;2023-05-02T15:30:22;19.30;69.40
4374;DHT22;2201;51.100;6.814;2023-05-02T15:32:49;19.10;70.10
4374;DHT22;2201;51.100;6.814;2023-05-02T15:35:15;19.00;71.70
4374;DHT22;2201;51.100;6.814;2023-05-02T15:37:42;19.00;70.90
4374;DHT22;2201;51.100;6.814;2023-05-02T15:40:11;19.00;70.90
4374;DHT22;2201;51.100;6.814;2023-05-02T15:42:38;18.80;69.00
4374;DHT22;2201;51.100;6.814;2023-05-02T15:48:44;18.90;69.40
4374;DHT22;2201;51.100;6.814;2023-05-02T15:51:16;18.70;69.20
4374;DHT22;2201;51.100;6.814;2023-05-02T15:54:19;18.70;69.30
4374;DHT22;2201;51.100;6.814;2023-05-02T15:57:08;18.70;69.60
4374;DHT22;2201;51.100;6.814;2023-05-02T15:59:42;18.50;70.90
4374;DHT22;2201;51.100;6.814;2023-05-02T16:02:54;18.50;69.50
4374;DHT22;2201;51.100;6.814;2023-05-02T16:05:27;18.20;69.60
4374;DHT22;2201;51.100;6.814;2023-05-02T16:07:54;18.20;71.70
4374;DHT22;2201;51.100;6.814;2023-05-02T16:10:21;18.30;70.00
4374;DHT22;2201;51.100;6.814;2023-05-02T16:12:49;18.20;71.40
4374;DHT22;2201;51.100;6.814;2023-05-02T16:15:37;18.30;70.60
4374;DHT22;2201;51.100;6.814;2023-05-02T16:18:23;18.20;71.30
4374;DHT22;2201;51.100;6.814;2023-05-02T16:20:55;18.30;71.40
4374;DHT22;2201;51.100;6.814;2023-05-02T16:23:37;18.10;70.30
4374;DHT22;2201;51.100;6.814;2023-05-02T16:26:05;18.10;72.10
4374;DHT22;2201;51.100;6.814;2023-05-02T16:28:33;18.00;72.30
4374;DHT22;2201;51.100;6.814;2023-05-02T16:31:04;18.00;71.30
4374;DHT22;2201;51.100;6.814;2023-05-02T16:33:48;17.80;69.70
4374;DHT22;2201;51.100;6.814;2023-05-02T16:39:37;17.50;71.30